Time;durP1;ratioP1;P1;durP2;ratioP2;P2;SDS_P1;SDS_P2;PMS_P1;PMS_P2;Temp;Humidity;BMP_temperature;BMP_pressure;BME280_temperature;BME280_humidity;BME280_pressure;Samples;Min_cycle;Max_cycle;Signal;HPM_P1;HPM_P2
2022/11/24 00:01:54;;;;;;;0.20;0.20;;;7.80;99.90;;;;;;5025509;28;20401;-71
2022/11/24 00:04:20;;;;;;;0.10;0.10;;;7.70;99.90;;;;;;5029300;28;20056;-72
2022/11/24 00:06:45;;;;;;;0.10;0.10;;;7.70;99.90;;;;;;5023722;28;21753;-72
2022/11/24 00:09:11;;;;;;;0.17;0.17;;;7.70;99.90;;;;;;5048325;28;20724;-73
2022/11/24 00:11:37;;;;;;;0.10;0.10;;;7.70;99.90;;;;;;5049045;28;20051;-72
2022/11/24 00:14:04;;;;;;;0.20;0.20;;;7.70;99.90;;;;;;5048692;28;20037;-72
2022/11/24 00:16:35;;;;;;;0.10;0.10;;;7.70;99.90;;;;;;5049349;28;20037;-72
2022/11/24 00:19:02;;;;;;;0.20;0.20;;;7.70;99.90;;;;;;5031933;28;20044;-72
2022/11/24 00:21:30;;;;;;;0.10;0.10;;;7.70;99.90;;;;;;5031723;28;20049;-72
2022/11/24 00:23:56;;;;;;;0.20;0.20;;;7.70;99.90;;;;;;5029957;28;20041;-72
2022/11/24 00:26:31;;;;;;;0.20;0.20;;;7.80;99.90;;;;;;5047052;28;20068;-72
2022/11/24 00:28:59;;;;;;;0.10;0.10;;;7.60;99.90;;;;;;5046786;28;20061;-72
2022/11/24 00:31:28;;;;;;;0.10;0.10;;;7.60;99.90;;;;;;5047773;28;20045;-72
2022/11/24 00:33:58;;;;;;;0.10;0.10;;;7.60;99.90;;;;;;5047476;28;20036;-72
2022/11/24 00:36:26;;;;;;;0.20;0.20;;;7.60;99.90;;;;;;5049326;28;20116;-72
2022/11/24 00:38:57;;;;;;;0.15;0.15;;;7.60;99.90;;;;;;5047367;28;20455;-72
2022/11/24 00:41:24;;;;;;;0.20;0.20;;;7.60;99.90;;;;;;5049592;28;20163;-72
2022/11/24 00:43:51;;;;;;;0.20;0.20;;;7.40;99.90;;;;;;5045703;28;20122;-72
2022/11/24 00:46:17;;;;;;;0.20;0.20;;;7.50;99.90;;;;;;5030108;28;20067;-72
2022/11/24 00:48:43;;;;;;;0.10;0.10;;;7.50;99.90;;;;;;5048668;28;20069;-73
2022/11/24 00:51:11;;;;;;;0.10;0.10;;;7.50;99.90;;;;;;5047497;28;20190;-73
2022/11/24 00:53:37;;;;;;;0.20;0.20;;;7.50;99.90;;;;;;5047293;28;20045;-73
2022/11/24 00:56:03;;;;;;;0.10;0.10;;;7.40;99.90;;;;;;5047586;28;20044;-73
2022/11/24 00:58:30;;;;;;;0.20;0.20;;;7.50;99.90;;;;;;5046754;28;20511;-73
2022/11/24 01:01:04;;;;;;;0.10;0.10;;;7.40;99.90;;;;;;5047935;28;20653;-73
2022/11/24 01:03:30;;;;;;;0.20;0.20;;;7.40;99.90;;;;;;5029970;28;20037;-72
2022/11/24 01:06:05;;;;;;;0.10;0.10;;;7.40;99.90;;;;;;5046609;28;20045;-71
2022/11/24 01:08:31;;;;;;;0.20;0.20;;;7.40;99.90;;;;;;5038129;28;20708;-72
2022/11/24 01:11:18;;;;;;;0.10;0.10;;;7.40;99.90;;;;;;5023313;28;20055;-72
2022/11/24 01:13:46;;;;;;;0.10;0.10;;;7.40;99.90;;;;;;5039883;28;20171;-72
2022/11/24 01:16:25;;;;;;;0.10;0.10;;;7.40;99.90;;;;;;5045257;28;20041;-72
2022/11/24 01:18:51;;;;;;;0.17;0.17;;;7.40;99.90;;;;;;5046914;28;20073;-72
2022/11/24 01:21:18;;;;;;;0.20;0.20;;;7.40;99.90;;;;;;5046598;28;20041;-72
2022/11/24 01:23:43;;;;;;;0.17;0.17;;;7.40;99.90;;;;;;5041398;28;20045;-72
2022/11/24 01:26:12;;;;;;;0.10;0.10;;;7.40;99.90;;;;;;5041073;28;20041;-73
2022/11/24 01:28:38;;;;;;;0.20;0.20;;;7.40;99.90;;;;;;5030566;28;20049;-73
2022/11/24 01:31:06;;;;;;;0.10;0.10;;;7.40;99.90;;;;;;5047100;28;20057;-73
2022/11/24 01:33:33;;;;;;;0.20;0.20;;;7.30;99.90;;;;;;5029634;28;20079;-72
2022/11/24 01:35:59;;;;;;;0.10;0.10;;;7.30;99.90;;;;;;5030259;28;20043;-72
2022/11/24 01:38:26;;;;;;;0.20;0.20;;;7.30;99.90;;;;;;5046844;28;20044;-71
2022/11/24 01:41:09;;;;;;;0.15;0.15;;;7.30;99.90;;;;;;5028718;28;20412;-73
2022/11/24 01:43:35;;;;;;;0.15;0.15;;;7.30;99.90;;;;;;5022175;28;20033;-72
2022/11/24 01:46:42;;;;;;;0.10;0.10;;;7.30;99.90;;;;;;5047991;28;20063;-73
2022/11/24 01:49:13;;;;;;;0.10;0.10;;;7.30;99.90;;;;;;5043652;28;20068;-72
2022/11/24 01:51:45;;;;;;;0.20;0.20;;;7.30;99.90;;;;;;5039750;28;20048;-72
2022/11/24 01:54:15;;;;;;;0.10;0.10;;;7.20;99.90;;;;;;5029107;28;20732;-72
2022/11/24 01:56:45;;;;;;;0.10;0.10;;;7.30;99.90;;;;;;5043546;28;20040;-72
2022/11/24 01:59:14;;;;;;;0.10;0.10;;;7.30;99.90;;;;;;5048484;28;20033;-72
2022/11/24 02:01:40;;;;;;;0.20;0.20;;;7.20;99.90;;;;;;5030479;28;20039;-73
2022/11/24 02:04:11;;;;;;;0.13;0.13;;;7.30;99.90;;;;;;5029484;28;20143;-71
2022/11/24 02:06:39;;;;;;;0.10;0.10;;;7.30;99.90;;;;;;5041956;28;21560;-71
2022/11/24 02:09:25;;;;;;;0.10;0.10;;;7.30;99.90;;;;;;5042757;28;20055;-71
2022/11/24 02:11:52;;;;;;;0.20;0.20;;;7.30;99.90;;;;;;5046014;28;20048;-71
2022/11/24 02:14:20;;;;;;;0.20;0.20;;;7.30;99.90;;;;;;5047746;28;20037;-72
2022/11/24 02:16:51;;;;;;;0.20;0.20;;;7.30;99.90;;;;;;5046492;28;20120;-72
2022/11/24 02:19:26;;;;;;;0.20;0.20;;;7.40;99.90;;;;;;5028959;28;20052;-73
2022/11/24 02:21:52;;;;;;;0.10;0.10;;;7.40;99.90;;;;;;5017996;28;20132;-73
2022/11/24 02:24:44;;;;;;;0.10;0.10;;;7.40;99.90;;;;;;5039791;28;20124;-71
2022/11/24 02:27:10;;;;;;;0.10;0.10;;;7.40;99.90;;;;;;5021182;28;20058;-71
2022/11/24 02:29:36;;;;;;;0.13;0.13;;;7.40;99.90;;;;;;5019789;28;20054;-71
2022/11/24 02:32:05;;;;;;;0.20;0.20;;;7.40;99.90;;;;;;5029409;28;20420;-70
2022/11/24 02:34:31;;;;;;;0.10;0.10;;;7.40;99.90;;;;;;5029011;28;20041;-73
2022/11/24 02:36:56;;;;;;;0.20;0.20;;;7.40;99.90;;;;;;5028216;28;20106;-71
2022/11/24 02:39:22;;;;;;;0.20;0.20;;;7.40;99.90;;;;;;5022862;28;20038;-71
2022/11/24 02:41:59;;;;;;;0.20;0.20;;;7.40;99.90;;;;;;5043422;28;20049;-71
2022/11/24 02:44:29;;;;;;;0.20;0.20;;;7.40;99.90;;;;;;5046666;28;20069;-71
2022/11/24 02:47:21;;;;;;;0.20;0.20;;;7.40;99.90;;;;;;5021698;28;20091;-71
2022/11/24 02:49:47;;;;;;;0.13;0.13;;;7.40;99.90;;;;;;5024602;28;20049;-71
2022/11/24 02:52:13;;;;;;;0.20;0.20;;;7.40;99.90;;;;;;5044418;28;20048;-71
2022/11/24 02:54:39;;;;;;;0.10;0.10;;;7.40;99.90;;;;;;5043433;28;20049;-71
2022/11/24 02:57:07;;;;;;;0.10;0.10;;;7.40;99.90;;;;;;5029524;28;20052;-72
2022/11/24 02:59:33;;;;;;;0.20;0.20;;;7.40;99.90;;;;;;5024382;28;20488;-71
2022/11/24 03:01:58;;;;;;;0.10;0.10;;;7.40;99.90;;;;;;5050982;28;20045;-71
2022/11/24 03:04:24;;;;;;;0.20;0.20;;;7.40;99.90;;;;;;5032538;28;20068;-73
2022/11/24 03:06:50;;;;;;;0.10;0.10;;;7.40;99.90;;;;;;5049849;28;20095;-71
2022/11/24 03:09:15;;;;;;;0.20;0.20;;;7.40;99.90;;;;;;5032819;28;20408;-71
2022/11/24 03:11:41;;;;;;;0.10;0.10;;;7.40;99.90;;;;;;5028210;28;20043;-71
2022/11/24 03:14:07;;;;;;;0.20;0.20;;;7.40;99.90;;;;;;5051625;28;20488;-71
2022/11/24 03:16:33;;;;;;;0.20;0.20;;;7.40;99.90;;;;;;5032728;28;20039;-70
2022/11/24 03:18:59;;;;;;;0.10;0.10;;;7.00;99.90;;;;;;5022777;28;20049;-71
2022/11/24 03:21:25;;;;;;;0.10;0.10;;;7.40;99.90;;;;;;5032437;28;20396;-71
2022/11/24 03:23:52;;;;;;;0.20;0.20;;;7.40;99.90;;;;;;5048976;28;20040;-71
2022/11/24 03:26:20;;;;;;;0.20;0.20;;;7.60;99.90;;;;;;5048555;28;20052;-73
2022/11/24 03:28:46;;;;;;;0.20;0.20;;;7.40;99.90;;;;;;5049252;28;20047;-73
2022/11/24 03:31:12;;;;;;;0.20;0.20;;;7.40;99.90;;;;;;5049176;28;20053;-71
2022/11/24 03:33:38;;;;;;;0.10;0.10;;;7.40;99.90;;;;;;5030554;28;20535;-73
2022/11/24 03:36:05;;;;;;;0.20;0.20;;;7.40;99.90;;;;;;5049273;28;20073;-71
2022/11/24 03:38:32;;;;;;;0.20;0.20;;;7.40;99.90;;;;;;5049737;28;20044;-71
2022/11/24 03:40:57;;;;;;;0.20;0.20;;;7.40;99.90;;;;;;5047560;28;20404;-71
2022/11/24 03:43:23;;;;;;;0.20;0.20;;;7.40;99.90;;;;;;5045588;28;20033;-71
2022/11/24 03:45:49;;;;;;;0.10;0.10;;;7.40;99.90;;;;;;5044201;28;20049;-73
2022/11/24 03:48:16;;;;;;;0.10;0.10;;;7.40;99.90;;;;;;5046966;28;20036;-73
2022/11/24 03:50:42;;;;;;;0.20;0.20;;;7.40;99.90;;;;;;5031177;28;20099;-74
2022/11/24 03:53:09;;;;;;;0.20;0.20;;;7.40;99.90;;;;;;5044589;28;20258;-71
2022/11/24 03:55:35;;;;;;;0.10;0.10;;;7.50;99.90;;;;;;5024668;28;20377;-73
2022/11/24 03:58:01;;;;;;;0.10;0.10;;;7.50;99.90;;;;;;5045219;28;20076;-71
2022/11/24 04:00:27;;;;;;;0.10;0.10;;;7.50;99.90;;;;;;5046504;28;20060;-74
2022/11/24 04:02:53;;;;;;;0.20;0.20;;;7.50;99.90;;;;;;5047038;28;20661;-73
2022/11/24 04:05:18;;;;;;;0.10;0.10;;;7.50;99.90;;;;;;5044741;28;20045;-73
2022/11/24 04:07:44;;;;;;;0.17;0.17;;;7.50;99.90;;;;;;5030640;28;20498;-73
2022/11/24 04:10:10;;;;;;;0.10;0.10;;;7.50;99.90;;;;;;5049015;28;20492;-72
2022/11/24 04:12:45;;;;;;;0.10;0.10;;;7.50;99.90;;;;;;5047508;28;20045;-71
2022/11/24 04:15:16;;;;;;;0.10;0.10;;;7.50;99.90;;;;;;5026558;28;21028;-71
2022/11/24 04:17:42;;;;;;;0.10;0.10;;;7.40;99.90;;;;;;5044351;28;20123;-72
2022/11/24 04:20:09;;;;;;;0.10;0.10;;;7.40;99.90;;;;;;5029879;28;20048;-72
2022/11/24 04:22:35;;;;;;;0.10;0.10;;;7.40;99.90;;;;;;5047474;28;20094;-72
2022/11/24 04:25:01;;;;;;;0.10;0.10;;;7.40;99.90;;;;;;5030872;28;20037;-71
2022/11/24 04:27:26;;;;;;;0.17;0.17;;;7.40;99.90;;;;;;5040253;28;20041;-71
2022/11/24 04:29:52;;;;;;;0.10;0.10;;;7.40;99.90;;;;;;5048932;28;20056;-71
2022/11/24 04:32:18;;;;;;;0.10;0.10;;;7.40;99.90;;;;;;5048160;28;20102;-72
2022/11/24 04:34:43;;;;;;;0.10;0.10;;;7.40;99.90;;;;;;5030553;28;20481;-71
2022/11/24 04:37:09;;;;;;;0.10;0.10;;;7.40;99.90;;;;;;5047856;28;20045;-71
2022/11/24 04:39:35;;;;;;;0.10;0.10;;;7.40;99.90;;;;;;5049331;28;20048;-71
2022/11/24 04:42:00;;;;;;;0.10;0.10;;;7.30;99.90;;;;;;5029636;28;20049;-71
2022/11/24 04:44:26;;;;;;;0.20;0.20;;;7.30;99.90;;;;;;5029501;28;20388;-71
2022/11/24 04:46:52;;;;;;;0.10;0.10;;;7.30;99.90;;;;;;5030095;28;20052;-71
2022/11/24 04:49:17;;;;;;;0.20;0.20;;;7.30;99.90;;;;;;5047674;28;20044;-72
2022/11/24 04:51:43;;;;;;;0.10;0.10;;;7.30;99.90;;;;;;5046257;28;20057;-72
2022/11/24 04:54:11;;;;;;;0.10;0.10;;;7.30;99.90;;;;;;5030070;28;20090;-74
2022/11/24 04:56:37;;;;;;;0.10;0.10;;;7.20;99.90;;;;;;5047496;28;20182;-71
2022/11/24 04:59:04;;;;;;;0.10;0.10;;;7.30;99.90;;;;;;5047936;28;20049;-71
2022/11/24 05:01:30;;;;;;;0.10;0.10;;;7.20;99.90;;;;;;5044067;28;20170;-71
2022/11/24 05:03:56;;;;;;;0.15;0.15;;;7.20;99.90;;;;;;5044058;28;20076;-71
2022/11/24 05:06:22;;;;;;;0.20;0.20;;;7.20;99.90;;;;;;5047067;28;20382;-71
2022/11/24 05:08:51;;;;;;;0.13;0.13;;;7.20;99.90;;;;;;5048574;28;20401;-71
2022/11/24 05:11:17;;;;;;;0.10;0.10;;;7.20;99.90;;;;;;5027136;28;20048;-72
2022/11/24 05:13:44;;;;;;;0.20;0.20;;;7.20;99.90;;;;;;5045691;28;20033;-73
2022/11/24 05:16:10;;;;;;;0.10;0.10;;;7.20;99.90;;;;;;5047257;28;20074;-71
2022/11/24 05:18:36;;;;;;;0.10;0.10;;;7.10;99.90;;;;;;5047414;28;20055;-71
2022/11/24 05:21:03;;;;;;;0.20;0.20;;;7.10;99.90;;;;;;5047448;28;20037;-71
2022/11/24 05:23:29;;;;;;;0.20;0.20;;;7.10;99.90;;;;;;5025235;28;20135;-71
2022/11/24 05:26:00;;;;;;;0.20;0.20;;;7.10;99.90;;;;;;5047125;28;20160;-71
2022/11/24 05:28:25;;;;;;;0.20;0.20;;;7.10;99.90;;;;;;5047337;28;20119;-71
2022/11/24 05:30:51;;;;;;;0.20;0.20;;;7.40;99.90;;;;;;5029998;28;20614;-71
2022/11/24 05:33:21;;;;;;;0.10;0.10;;;7.10;99.90;;;;;;5029060;28;20045;-71
2022/11/24 05:35:48;;;;;;;0.15;0.15;;;7.00;99.90;;;;;;5046339;28;20456;-71
2022/11/24 05:38:14;;;;;;;0.20;0.20;;;7.00;99.90;;;;;;5047138;28;20044;-72
2022/11/24 05:40:40;;;;;;;0.20;0.20;;;7.00;99.90;;;;;;5046561;28;20045;-71
2022/11/24 05:43:14;;;;;;;0.20;0.20;;;7.00;99.90;;;;;;5046042;28;20289;-71
2022/11/24 05:45:40;;;;;;;0.13;0.13;;;7.00;99.90;;;;;;5029593;28;20078;-71
2022/11/24 05:48:07;;;;;;;0.20;0.20;;;7.00;99.90;;;;;;5046762;28;20484;-71
2022/11/24 05:50:34;;;;;;;0.20;0.20;;;6.90;99.90;;;;;;5047783;28;20069;-71
2022/11/24 05:53:13;;;;;;;0.17;0.17;;;6.90;99.90;;;;;;5029339;28;20140;-71
2022/11/24 05:55:39;;;;;;;0.10;0.10;;;6.90;99.90;;;;;;5027088;28;20056;-71
2022/11/24 05:58:07;;;;;;;0.10;0.10;;;6.90;99.90;;;;;;5028524;28;20053;-72
2022/11/24 06:00:34;;;;;;;0.10;0.10;;;6.90;99.90;;;;;;5037782;28;20041;-71
2022/11/24 06:03:00;;;;;;;0.20;0.20;;;6.90;99.90;;;;;;5044638;28;20235;-71
2022/11/24 06:05:27;;;;;;;0.10;0.10;;;6.90;99.90;;;;;;5025751;28;20083;-71
2022/11/24 06:07:53;;;;;;;0.10;0.10;;;6.90;99.90;;;;;;5045738;28;20074;-72
2022/11/24 06:10:22;;;;;;;0.20;0.20;;;6.90;99.90;;;;;;5029662;28;20055;-71
2022/11/24 06:12:48;;;;;;;0.20;0.20;;;6.90;99.90;;;;;;5045558;28;20041;-72
2022/11/24 06:15:14;;;;;;;0.20;0.20;;;6.90;99.90;;;;;;5046348;28;20112;-72
2022/11/24 06:17:40;;;;;;;0.10;0.10;;;6.90;99.90;;;;;;5029450;28;20624;-72
2022/11/24 06:20:07;;;;;;;0.20;0.20;;;6.90;99.90;;;;;;5047207;28;20124;-72
2022/11/24 06:22:32;;;;;;;0.10;0.10;;;6.90;99.90;;;;;;5023924;28;20065;-72
2022/11/24 06:24:58;;;;;;;0.20;0.20;;;6.90;99.90;;;;;;5027586;28;20081;-71
2022/11/24 06:27:24;;;;;;;0.20;0.20;;;6.90;99.90;;;;;;5040599;28;20045;-72
2022/11/24 06:29:50;;;;;;;0.10;0.10;;;6.90;99.90;;;;;;5029137;28;20051;-72
2022/11/24 06:32:16;;;;;;;0.10;0.10;;;6.90;99.90;;;;;;5049390;28;20492;-73
2022/11/24 06:34:42;;;;;;;0.20;0.20;;;6.90;99.90;;;;;;5026706;28;20044;-71
2022/11/24 06:37:08;;;;;;;0.10;0.10;;;7.10;99.90;;;;;;5049517;28;20456;-72
2022/11/24 06:39:34;;;;;;;0.13;0.13;;;6.80;99.90;;;;;;5049885;28;20068;-72
2022/11/24 06:42:00;;;;;;;0.10;0.10;;;6.90;99.90;;;;;;5050640;28;20037;-72
2022/11/24 06:44:26;;;;;;;0.20;0.20;;;6.90;99.90;;;;;;5045193;28;20135;-72
2022/11/24 06:46:52;;;;;;;0.20;0.20;;;6.90;99.90;;;;;;5048808;28;20044;-72
2022/11/24 06:49:18;;;;;;;0.20;0.20;;;6.90;99.90;;;;;;5030965;28;20056;-72
2022/11/24 06:51:43;;;;;;;0.10;0.10;;;6.90;99.90;;;;;;5048651;28;20392;-72
2022/11/24 06:54:14;;;;;;;0.20;0.20;;;6.90;99.90;;;;;;5049239;28;20468;-72
2022/11/24 06:56:39;;;;;;;0.10;0.10;;;7.00;99.90;;;;;;5030978;28;20041;-72
2022/11/24 06:59:05;;;;;;;0.20;0.20;;;6.80;99.90;;;;;;5050411;28;20051;-73
2022/11/24 07:01:31;;;;;;;0.17;0.17;;;6.90;99.90;;;;;;5050311;28;20041;-72
2022/11/24 07:03:57;;;;;;;0.20;0.20;;;6.90;99.90;;;;;;5041683;28;20064;-72
2022/11/24 07:06:24;;;;;;;0.10;0.10;;;6.90;99.90;;;;;;5032323;28;20483;-72
2022/11/24 07:08:50;;;;;;;0.10;0.10;;;6.90;99.90;;;;;;5030885;28;20041;-72
2022/11/24 07:11:21;;;;;;;0.10;0.10;;;6.90;99.90;;;;;;5028829;28;20048;-72
2022/11/24 07:13:47;;;;;;;0.10;0.10;;;6.90;99.90;;;;;;5049912;28;20037;-73
2022/11/24 07:16:14;;;;;;;0.13;0.13;;;7.00;99.90;;;;;;5031461;28;20118;-71
2022/11/24 07:18:41;;;;;;;0.20;0.20;;;7.00;99.90;;;;;;5048022;28;20033;-71
2022/11/24 07:21:07;;;;;;;0.10;0.10;;;6.90;99.90;;;;;;5031652;28;20082;-71
2022/11/24 07:23:32;;;;;;;0.20;0.20;;;6.90;99.90;;;;;;5050193;28;20502;-71
2022/11/24 07:25:58;;;;;;;0.20;0.20;;;6.90;99.90;;;;;;5050036;28;20045;-72
2022/11/24 07:28:24;;;;;;;0.17;0.17;;;6.90;99.90;;;;;;5048358;28;20040;-69
2022/11/24 07:30:49;;;;;;;0.20;0.20;;;6.90;99.90;;;;;;5050708;28;20091;-72
2022/11/24 07:33:18;;;;;;;0.10;0.10;;;6.90;99.90;;;;;;5030157;28;20044;-72
2022/11/24 07:35:44;;;;;;;0.20;0.20;;;6.90;99.90;;;;;;5046718;28;20048;-72
2022/11/24 07:38:09;;;;;;;0.20;0.20;;;6.90;99.90;;;;;;5032443;28;20037;-72
2022/11/24 07:40:38;;;;;;;0.10;0.10;;;6.90;99.90;;;;;;5047990;28;20041;-72
2022/11/24 07:43:03;;;;;;;0.20;0.20;;;6.90;99.90;;;;;;5029087;28;20036;-71
2022/11/24 07:45:29;;;;;;;0.10;0.10;;;6.90;99.90;;;;;;5025006;28;20041;-72
2022/11/24 07:47:57;;;;;;;0.17;0.17;;;6.90;99.90;;;;;;5023963;28;20084;-71
2022/11/24 07:50:23;;;;;;;0.20;0.20;;;6.90;99.90;;;;;;5050420;28;20037;-71
2022/11/24 07:52:49;;;;;;;0.10;0.10;;;6.90;99.90;;;;;;5048399;28;20381;-70
2022/11/24 07:55:15;;;;;;;0.10;0.10;;;6.90;99.90;;;;;;5029953;28;20041;-70
2022/11/24 07:57:40;;;;;;;0.10;0.10;;;6.90;99.90;;;;;;5040805;28;20071;-70
2022/11/24 08:00:06;;;;;;;0.10;0.10;;;6.90;99.90;;;;;;5046344;28;20037;-71
2022/11/24 08:02:32;;;;;;;0.20;0.20;;;6.90;99.90;;;;;;5028466;28;20480;-70
2022/11/24 08:04:58;;;;;;;0.10;0.10;;;6.90;99.90;;;;;;5026354;28;20044;-70
2022/11/24 08:07:24;;;;;;;0.20;0.20;;;6.90;99.90;;;;;;5047289;28;20040;-70
2022/11/24 08:09:50;;;;;;;0.10;0.10;;;6.90;99.90;;;;;;5048502;28;20041;-70
2022/11/24 08:12:20;;;;;;;0.10;0.10;;;6.90;99.90;;;;;;5027766;28;20036;-71
2022/11/24 08:14:47;;;;;;;0.13;0.13;;;6.90;99.90;;;;;;5044041;28;20043;-71
2022/11/24 08:17:12;;;;;;;0.17;0.17;;;6.90;99.90;;;;;;5046765;28;20041;-70
2022/11/24 08:19:38;;;;;;;0.20;0.20;;;7.00;99.90;;;;;;5026864;28;20052;-70
2022/11/24 08:22:04;;;;;;;0.10;0.10;;;7.00;99.90;;;;;;5042780;28;20055;-71
2022/11/24 08:24:30;;;;;;;0.15;0.15;;;7.00;99.90;;;;;;5027015;28;20125;-71
2022/11/24 08:26:55;;;;;;;0.10;0.10;;;7.10;99.90;;;;;;5028912;28;20077;-71
2022/11/24 08:29:21;;;;;;;0.10;0.10;;;7.20;99.90;;;;;;5044906;28;20535;-71
2022/11/24 08:31:47;;;;;;;0.20;0.20;;;7.10;99.90;;;;;;5044020;28;20083;-71
2022/11/24 08:34:12;;;;;;;0.15;0.15;;;7.10;99.90;;;;;;5027776;28;20044;-70
2022/11/24 08:36:38;;;;;;;0.10;0.10;;;7.10;99.90;;;;;;5029753;28;20055;-71
2022/11/24 08:39:04;;;;;;;0.17;0.17;;;7.10;99.90;;;;;;5028429;28;20076;-69
2022/11/24 08:41:30;;;;;;;0.20;0.20;;;7.20;99.90;;;;;;5023438;28;20579;-70
2022/11/24 08:43:56;;;;;;;0.15;0.15;;;7.20;99.90;;;;;;5045433;28;20072;-72
2022/11/24 08:46:22;;;;;;;0.20;0.20;;;7.20;99.90;;;;;;5046753;28;20058;-70
2022/11/24 08:48:49;;;;;;;0.20;0.20;;;7.30;99.90;;;;;;5029108;28;20076;-70
2022/11/24 08:51:18;;;;;;;0.20;0.20;;;7.30;99.90;;;;;;5027373;28;20075;-72
2022/11/24 08:53:44;;;;;;;0.20;0.20;;;7.40;99.90;;;;;;5045849;28;20382;-71
2022/11/24 08:56:11;;;;;;;0.20;0.20;;;7.40;99.90;;;;;;5029109;28;20072;-71
2022/11/24 08:58:38;;;;;;;0.10;0.10;;;7.70;99.90;;;;;;5029815;28;20607;-71
2022/11/24 09:01:12;;;;;;;0.10;0.10;;;7.70;99.90;;;;;;5029907;28;20041;-71
2022/11/24 09:03:38;;;;;;;0.20;0.20;;;7.70;99.90;;;;;;5045906;28;20041;-71
2022/11/24 09:06:08;;;;;;;0.10;0.10;;;7.80;99.90;;;;;;5029370;28;20099;-71
2022/11/24 09:08:35;;;;;;;0.17;0.17;;;7.80;99.90;;;;;;5028810;28;20071;-72
2022/11/24 09:11:06;;;;;;;0.20;0.20;;;7.90;99.90;;;;;;5045581;28;20451;-72
2022/11/24 09:13:32;;;;;;;0.10;0.10;;;8.00;99.90;;;;;;5041271;28;20041;-72
2022/11/24 09:16:10;;;;;;;0.10;0.10;;;8.00;99.90;;;;;;5044412;28;20033;-72
2022/11/24 09:18:35;;;;;;;0.20;0.20;;;8.10;99.90;;;;;;5029850;28;20520;-71
2022/11/24 09:21:17;;;;;;;0.10;0.10;;;8.10;99.90;;;;;;5030086;28;20051;-72
2022/11/24 09:23:46;;;;;;;0.10;0.10;;;8.20;99.90;;;;;;5031263;28;20094;-73
2022/11/24 09:26:26;;;;;;;0.20;0.20;;;8.20;99.90;;;;;;5028808;28;20041;-72
2022/11/24 09:28:53;;;;;;;0.10;0.10;;;8.10;99.90;;;;;;5045121;28;20102;-72
2022/11/24 09:31:20;;;;;;;0.20;0.20;;;8.10;99.90;;;;;;5044322;28;20499;-71
2022/11/24 09:33:46;;;;;;;0.20;0.20;;;8.10;99.90;;;;;;5044877;28;20051;-72
2022/11/24 09:36:13;;;;;;;0.10;0.10;;;8.10;99.90;;;;;;5030390;28;20388;-72
2022/11/24 09:38:39;;;;;;;0.20;0.20;;;8.10;99.90;;;;;;5046859;28;20583;-71
2022/11/24 09:41:16;;;;;;;0.10;0.10;;;8.10;99.90;;;;;;5030697;28;20052;-72
2022/11/24 09:43:58;;;;;;;0.10;0.10;;;8.20;99.90;;;;;;5029789;28;20500;-71
2022/11/24 09:46:50;;;;;;;0.10;0.10;;;8.20;99.90;;;;;;5030046;28;20380;-72
2022/11/24 09:49:23;;;;;;;0.10;0.10;;;8.30;99.90;;;;;;5045354;28;20074;-72
2022/11/24 09:51:52;;;;;;;0.10;0.10;;;8.40;99.90;;;;;;5046249;28;20045;-72
2022/11/24 09:54:24;;;;;;;0.10;0.10;;;8.50;99.90;;;;;;5030250;28;20094;-71
2022/11/24 09:56:51;;;;;;;0.10;0.10;;;8.50;99.90;;;;;;5045934;28;20049;-72
2022/11/24 09:59:21;;;;;;;0.20;0.20;;;8.60;99.90;;;;;;5025243;28;20508;-72
2022/11/24 10:01:49;;;;;;;0.20;0.20;;;8.60;99.90;;;;;;5022063;28;20393;-71
2022/11/24 10:04:27;;;;;;;0.15;0.15;;;8.70;99.90;;;;;;5048628;28;20056;-71
2022/11/24 10:07:24;;;;;;;0.20;0.20;;;8.80;99.90;;;;;;5032715;28;20094;-72
2022/11/24 10:09:57;;;;;;;0.10;0.10;;;8.80;99.90;;;;;;5031596;28;20128;-71
2022/11/24 10:12:42;;;;;;;0.20;0.20;;;8.90;99.90;;;;;;5032970;28;20072;-70
2022/11/24 10:15:21;;;;;;;0.10;0.10;;;9.00;99.90;;;;;;5051350;28;20388;-71
2022/11/24 10:18:05;;;;;;;0.10;0.10;;;9.10;99.90;;;;;;5050068;28;20049;-72
2022/11/24 10:20:56;;;;;;;0.20;0.20;;;9.30;99.90;;;;;;5029004;28;20182;-71
2022/11/24 10:23:48;;;;;;;0.20;0.20;;;9.30;99.90;;;;;;5024030;28;20033;-71
2022/11/24 10:26:24;;;;;;;0.10;0.10;;;9.40;99.90;;;;;;5032453;28;20037;-71
2022/11/24 10:28:53;;;;;;;0.10;0.10;;;9.60;99.90;;;;;;5050377;28;20094;-72
2022/11/24 10:31:30;;;;;;;0.10;0.10;;;9.70;99.90;;;;;;5029511;28;20045;-71
2022/11/24 10:34:02;;;;;;;0.10;0.10;;;9.80;99.90;;;;;;5051001;28;20460;-71
2022/11/24 10:36:56;;;;;;;0.20;0.20;;;10.30;99.90;;;;;;5033378;28;20044;-71
2022/11/24 10:39:42;;;;;;;0.20;0.20;;;11.00;99.90;;;;;;5034145;28;20416;-71
2022/11/24 10:42:22;;;;;;;0.20;0.20;;;11.90;99.90;;;;;;5031569;28;20262;-71
2022/11/24 10:45:01;;;;;;;0.20;0.20;;;12.50;99.90;;;;;;5033946;28;20115;-71
2022/11/24 10:47:28;;;;;;;0.20;0.20;;;13.20;99.90;;;;;;5026538;28;20056;-71
2022/11/24 10:50:02;;;;;;;0.10;0.10;;;13.70;99.90;;;;;;5043239;28;20049;-71
2022/11/24 10:52:30;;;;;;;0.15;0.15;;;14.40;99.90;;;;;;5024684;28;20481;-72
2022/11/24 10:55:00;;;;;;;0.20;0.20;;;15.00;99.90;;;;;;5051688;28;20567;-73
2022/11/24 10:57:34;;;;;;;0.10;0.10;;;15.00;99.90;;;;;;5029832;28;20134;-72
2022/11/24 11:00:01;;;;;;;0.20;0.20;;;14.80;99.90;;;;;;5048836;28;20055;-72
2022/11/24 11:02:36;;;;;;;0.10;0.10;;;14.40;99.90;;;;;;5045867;28;20790;-72
2022/11/24 11:05:36;;;;;;;0.10;0.10;;;13.80;99.90;;;;;;5050671;28;20492;-71
2022/11/24 11:08:20;;;;;;;0.15;0.15;;;13.10;99.90;;;;;;5049681;28;20045;-72
2022/11/24 11:10:49;;;;;;;0.20;0.20;;;12.50;99.90;;;;;;5050475;28;20485;-72
2022/11/24 11:13:31;;;;;;;0.20;0.20;;;12.20;99.90;;;;;;5048998;28;20555;-72
2022/11/24 11:15:58;;;;;;;0.10;0.10;;;11.90;99.90;;;;;;5049678;28;20549;-71
2022/11/24 11:18:32;;;;;;;0.10;0.10;;;11.70;99.90;;;;;;5048809;28;20587;-72
2022/11/24 11:21:03;;;;;;;0.15;0.15;;;11.50;99.90;;;;;;5050966;28;20036;-72
2022/11/24 11:23:32;;;;;;;0.17;0.17;;;11.50;99.90;;;;;;5050172;28;20083;-72
2022/11/24 11:26:37;;;;;;;0.20;0.20;;;11.30;99.90;;;;;;5032624;28;20080;-72
2022/11/24 11:29:14;;;;;;;0.10;0.10;;;11.20;99.90;;;;;;4988701;28;20513;-71
2022/11/24 11:31:39;;;;;;;0.13;0.13;;;11.20;99.90;;;;;;4979675;28;20156;-71
2022/11/24 11:34:08;;;;;;;0.10;0.10;;;11.20;99.90;;;;;;5000851;28;20132;-72
2022/11/24 11:36:38;;;;;;;0.20;0.20;;;11.40;99.90;;;;;;5048438;28;20132;-71
2022/11/24 11:39:04;;;;;;;0.20;0.20;;;11.40;99.90;;;;;;5044600;28;20037;-71
2022/11/24 11:41:42;;;;;;;0.20;0.20;;;11.50;99.90;;;;;;5045772;28;20422;-72
2022/11/24 11:44:16;;;;;;;0.10;0.10;;;11.60;99.90;;;;;;5026775;28;20499;-72
2022/11/24 11:46:43;;;;;;;0.20;0.20;;;11.80;99.90;;;;;;5023658;28;20100;-71
2022/11/24 11:49:12;;;;;;;0.10;0.10;;;12.10;99.90;;;;;;5049124;28;20044;-71
2022/11/24 11:52:30;;;;;;;0.20;0.20;;;12.50;99.90;;;;;;5031303;28;20132;-71
2022/11/24 11:55:25;;;;;;;0.17;0.17;;;13.40;99.90;;;;;;4943506;28;20381;-71
2022/11/24 11:57:54;;;;;;;0.15;0.15;;;14.20;99.90;;;;;;4964592;28;20039;-71
2022/11/24 12:00:21;;;;;;;0.10;0.10;;;15.90;99.90;;;;;;5027642;28;20132;-70
2022/11/24 12:03:19;;;;;;;0.20;0.20;;;15.90;99.90;;;;;;5028836;28;20502;-71
2022/11/24 12:05:56;;;;;;;0.10;0.10;;;16.70;99.90;;;;;;5017325;28;20120;-71
2022/11/24 12:08:35;;;;;;;0.10;0.10;;;17.50;99.90;;;;;;5027459;28;20033;-71
2022/11/24 12:11:19;;;;;;;0.20;0.20;;;18.10;99.90;;;;;;5039026;28;20049;-71
2022/11/24 12:14:03;;;;;;;0.10;0.10;;;18.70;99.90;;;;;;5040081;28;20106;-71
2022/11/24 12:16:48;;;;;;;0.20;0.20;;;;;;;;;;5031369;28;20037;-71
2022/11/24 12:19:17;;;;;;;0.20;0.20;;;;;;;;;;5038040;28;20048;-71
2022/11/24 12:21:51;;;;;;;0.20;0.20;;;;;;;;;;5024884;28;20041;-71
2022/11/24 12:24:17;;;;;;;0.20;0.20;;;;;;;;;;5039221;28;20045;-72
2022/11/24 12:26:54;;;;;;;0.20;0.20;;;;;;;;;;5043794;28;20075;-71
2022/11/24 12:29:22;;;;;;;0.20;0.20;;;;;;;;;;5022826;28;20658;-71
2022/11/24 12:32:04;;;;;;;0.20;0.20;;;;;;;;;;5023677;28;20493;-72
2022/11/24 12:34:42;;;;;;;0.20;0.20;;;;;;;;;;5027140;28;20041;-72
2022/11/24 12:37:20;;;;;;;0.10;0.10;;;;;;;;;;5028267;28;20032;-72
2022/11/24 12:39:52;;;;;;;0.20;0.20;;;;;;;;;;5027525;28;20437;-72
2022/11/24 12:42:18;;;;;;;0.20;0.20;;;;;;;;;;5026443;28;20389;-72
2022/11/24 12:44:56;;;;;;;0.20;0.20;;;;;;;;;;5027235;28;20038;-72
2022/11/24 12:47:33;;;;;;;0.20;0.20;;;;;;;;;;5033930;28;20605;-72
2022/11/24 12:50:10;;;;;;;0.20;0.20;;;;;;;;;;5025893;28;20503;-71
2022/11/24 12:52:49;;;;;;;0.10;0.10;;;;;;;;;;5022562;28;20056;-71
2022/11/24 12:55:20;;;;;;;0.10;0.10;;;;;;;;;;5027542;28;20049;-71
2022/11/24 12:57:49;;;;;;;0.20;0.20;;;;;;;;;;5023109;28;20048;-72
2022/11/24 13:00:20;;;;;;;0.10;0.10;;;;;;;;;;5028265;28;20308;-72
2022/11/24 13:03:09;;;;;;;0.15;0.15;;;;;;;;;;5026988;28;20042;-72
2022/11/24 13:05:45;;;;;;;0.10;0.10;;;;;;;;;;5022505;28;20045;-72
2022/11/24 13:08:14;;;;;;;0.10;0.10;;;;;;;;;;5027054;28;22031;-72
2022/11/24 13:10:40;;;;;;;0.20;0.20;;;;;;;;;;5027237;28;20080;-73
2022/11/24 13:13:07;;;;;;;0.20;0.20;;;;;;;;;;5024560;28;20094;-72
2022/11/24 13:15:51;;;;;;;0.10;0.10;;;;;;;;;;5027794;28;20128;-71
2022/11/24 13:18:40;;;;;;;0.10;0.10;;;;;;;;;;5023048;28;20072;-72